PWSweather.com
Personal Weather Stations
Station Observations
133525
French Quarters West Seneca , West Seneca, NY 14224

French Quarters West Seneca West Seneca, NY 14224

Lat: 42.850058, Lon: -78.799754

Elevation: 603

Station Type: Davis Vantage Vue pro2

http://westsenecaweather.com/

Latest ConditionsUpdated 4:50:01 PM EDT Monday, Sep 23, 2019
Currently Today's Max Today's Min Today's Average
Temperature 69.8°F21.0°C 77.4°F25.2°C 68.5°F20.3°C 73.2°F22.9°C
Dew Point 67.4°F19.7°C 69.2°F20.7°C 60.1°F15.6°C 64.7°F18.2°C
Winds 2.3 mph ENE3.7 kmh ENE 9.2 mph -14.8 kmh - - 4.9 mph 7.9 kmh
Wind Gusts 6.9 mph11.1 kmh 24.2 mph38.9 kmh - -
Humidity 92% 95% 56% 76%
Pressure 29.72 in1006.4 mb 29.82 in1009.8 mb 29.70 in1005.8 mb -
Precipitation - 0.63 in16.0 mm - -
Hour Temp Dew Point Humidity Winds Wind Gusts Pressure Precip Precip Rate Daily Precip Total
04:50 PM 69.8°F21.0°C 67.4°F19.7°C 92% 2.3 mph ENE3.7 kmh ENE 6.9 mph11.1 kmh 29.72 in1006.4 mb - 0.19 in4.8 mm 0.63 in16.0 mm
04:45 PM 69.4°F20.8°C 67.0°F19.4°C 92% 3.5 mph E5.6 kmh E 4.6 mph7.4 kmh 29.72 in1006.4 mb - 0.19 in4.8 mm 0.63 in16.0 mm
04:40 PM 69.2°F20.7°C 66.8°F19.3°C 92% 4.6 mph NE7.4 kmh NE 3.5 mph5.6 kmh 29.72 in1006.4 mb - 0.19 in4.8 mm 0.63 in16.0 mm
04:35 PM 69.3°F20.7°C 67.2°F19.6°C 93% 4.6 mph ENE7.4 kmh ENE 8.1 mph13.0 kmh 29.72 in1006.4 mb - 0.19 in4.8 mm 0.63 in16.0 mm
04:30 PM 69.5°F20.8°C 67.4°F19.7°C 93% 4.6 mph NE7.4 kmh NE 6.9 mph11.1 kmh 29.71 in1006.1 mb - 0.19 in4.8 mm 0.63 in16.0 mm
04:25 PM 69.7°F20.9°C 67.9°F19.9°C 94% 3.5 mph NNE5.6 kmh NNE 8.1 mph13.0 kmh 29.71 in1006.1 mb - 0.19 in4.8 mm 0.63 in16.0 mm
04:20 PM 69.5°F20.8°C 67.7°F19.8°C 94% 3.5 mph NE5.6 kmh NE 5.8 mph9.3 kmh 29.71 in1006.1 mb - 0.19 in4.8 mm 0.63 in16.0 mm
04:15 PM 69.1°F20.6°C 67.0°F19.4°C 93% 5.8 mph NE9.3 kmh NE 11.5 mph18.5 kmh 29.72 in1006.4 mb - 0.19 in4.8 mm 0.63 in16.0 mm
04:10 PM 68.8°F20.4°C 66.4°F19.1°C 92% 6.9 mph ENE11.1 kmh ENE 10.4 mph16.7 kmh 29.71 in1006.1 mb - 0.19 in4.8 mm 0.63 in16.0 mm
04:00 PM 70.0°F21.1°C 67.0°F19.4°C 90% 4.6 mph NE7.4 kmh NE 10.4 mph16.7 kmh 29.71 in1006.1 mb - 0.18 in4.6 mm 0.62 in15.7 mm
03:55 PM 71.2°F21.8°C 68.1°F20.1°C 90% 6.9 mph NNW11.1 kmh NNW 13.8 mph22.2 kmh 29.71 in1006.1 mb - 0.12 in3.0 mm 0.56 in14.2 mm
03:50 PM 71.7°F22.1°C 68.0°F20.0°C 88% 5.8 mph NW9.3 kmh NW 9.2 mph14.8 kmh 29.70 in1005.8 mb - 0.00 in0.0 mm 0.44 in11.2 mm
03:45 PM 72.1°F22.3°C 68.7°F20.4°C 89% 3.5 mph NNW5.6 kmh NNW 12.7 mph20.4 kmh 29.70 in1005.8 mb - 0.00 in0.0 mm 0.44 in11.2 mm
03:40 PM 72.3°F22.4°C 68.9°F20.5°C 89% 4.6 mph NW7.4 kmh NW 9.2 mph14.8 kmh 29.71 in1006.1 mb - 0.00 in0.0 mm 0.44 in11.2 mm
03:35 PM 72.3°F22.4°C 69.2°F20.7°C 90% 5.8 mph NW9.3 kmh NW 10.4 mph16.7 kmh 29.71 in1006.1 mb - 0.00 in0.0 mm 0.44 in11.2 mm
03:30 PM 72.1°F22.3°C 69.0°F20.6°C 90% 6.9 mph NNW11.1 kmh NNW 11.5 mph18.5 kmh 29.71 in1006.1 mb - 0.00 in0.0 mm 0.44 in11.2 mm
03:25 PM 71.8°F22.1°C 69.0°F20.6°C 91% 3.5 mph NNW5.6 kmh NNW 5.8 mph9.3 kmh 29.71 in1006.1 mb - 0.00 in0.0 mm 0.44 in11.2 mm
03:20 PM 71.5°F21.9°C 68.7°F20.4°C 91% 4.6 mph NNE7.4 kmh NNE 4.6 mph7.4 kmh 29.71 in1006.1 mb - 0.00 in0.0 mm 0.44 in11.2 mm
03:15 PM 71.2°F21.8°C 68.8°F20.4°C 92% 5.8 mph NE9.3 kmh NE 9.2 mph14.8 kmh 29.71 in1006.1 mb - 0.00 in0.0 mm 0.44 in11.2 mm
03:10 PM 71.1°F21.7°C 68.7°F20.4°C 92% 3.5 mph NE5.6 kmh NE 6.9 mph11.1 kmh 29.71 in1006.1 mb - 0.00 in0.0 mm 0.44 in11.2 mm
03:00 PM 70.5°F21.4°C 68.4°F20.2°C 93% 4.6 mph NNW7.4 kmh NNW 11.5 mph18.5 kmh 29.71 in1006.1 mb - 0.00 in0.0 mm 0.44 in11.2 mm
02:55 PM 70.1°F21.2°C 68.0°F20.0°C 93% 3.5 mph N5.6 kmh N 9.2 mph14.8 kmh 29.72 in1006.4 mb - 0.00 in0.0 mm 0.44 in11.2 mm
02:50 PM 69.9°F21.1°C 67.7°F19.8°C 93% 4.6 mph ENE7.4 kmh ENE 11.5 mph18.5 kmh 29.72 in1006.4 mb - 0.00 in0.0 mm 0.44 in11.2 mm
02:45 PM 69.6°F20.9°C 67.8°F19.9°C 94% 4.6 mph ENE7.4 kmh ENE 8.1 mph13.0 kmh 29.72 in1006.4 mb - 0.00 in0.0 mm 0.44 in11.2 mm
02:40 PM 69.4°F20.8°C 67.6°F19.8°C 94% 3.5 mph NE5.6 kmh NE 6.9 mph11.1 kmh 29.72 in1006.4 mb - 0.00 in0.0 mm 0.44 in11.2 mm
02:35 PM 69.3°F20.7°C 67.1°F19.5°C 93% 5.8 mph NE9.3 kmh NE 11.5 mph18.5 kmh 29.72 in1006.4 mb - 0.00 in0.0 mm 0.44 in11.2 mm
02:30 PM 69.3°F20.7°C 67.5°F19.7°C 94% 3.5 mph NE5.6 kmh NE 5.8 mph9.3 kmh 29.72 in1006.4 mb - 0.00 in0.0 mm 0.44 in11.2 mm
02:25 PM 69.5°F20.8°C 67.7°F19.8°C 94% 3.5 mph ENE5.6 kmh ENE 8.1 mph13.0 kmh 29.72 in1006.4 mb - 0.01 in0.3 mm 0.44 in11.2 mm
02:20 PM 69.5°F20.8°C 67.7°F19.8°C 94% 4.6 mph NW7.4 kmh NW 10.4 mph16.7 kmh 29.72 in1006.4 mb - 0.01 in0.3 mm 0.44 in11.2 mm
02:15 PM 69.4°F20.8°C 67.9°F19.9°C 95% 5.8 mph NNW9.3 kmh NNW 9.2 mph14.8 kmh 29.72 in1006.4 mb - 0.01 in0.3 mm 0.44 in11.2 mm
02:10 PM 69.1°F20.6°C 67.6°F19.8°C 95% 4.6 mph N7.4 kmh N 6.9 mph11.1 kmh 29.71 in1006.1 mb - 0.02 in0.5 mm 0.44 in11.2 mm
02:00 PM 68.9°F20.5°C 67.4°F19.7°C 95% 3.5 mph NNW5.6 kmh NNW 8.1 mph13.0 kmh 29.72 in1006.4 mb - 0.02 in0.5 mm 0.44 in11.2 mm
01:55 PM 68.8°F20.4°C 67.3°F19.6°C 95% 4.6 mph N7.4 kmh N 6.9 mph11.1 kmh 29.72 in1006.4 mb - 0.03 in0.8 mm 0.44 in11.2 mm
01:50 PM 68.7°F20.4°C 67.2°F19.6°C 95% 4.6 mph N7.4 kmh N 9.2 mph14.8 kmh 29.72 in1006.4 mb - 0.05 in1.3 mm 0.44 in11.2 mm
01:45 PM 68.8°F20.4°C 67.3°F19.6°C 95% 3.5 mph NNW5.6 kmh NNW 10.4 mph16.7 kmh 29.71 in1006.1 mb - 0.10 in2.5 mm 0.44 in11.2 mm
01:40 PM 68.7°F20.4°C 67.2°F19.6°C 95% 3.5 mph N5.6 kmh N 5.8 mph9.3 kmh 29.72 in1006.4 mb - 0.28 in7.1 mm 0.44 in11.2 mm
01:35 PM 68.5°F20.3°C 67.0°F19.4°C 95% 3.5 mph NNE5.6 kmh NNE 9.2 mph14.8 kmh 29.72 in1006.4 mb - 0.40 in10.2 mm 0.44 in11.2 mm
01:30 PM 68.5°F20.3°C 67.0°F19.4°C 95% 4.6 mph NW7.4 kmh NW 8.1 mph13.0 kmh 29.72 in1006.4 mb - 0.42 in10.7 mm 0.44 in11.2 mm
01:25 PM 68.5°F20.3°C 66.7°F19.3°C 94% 3.5 mph NW5.6 kmh NW 4.6 mph7.4 kmh 29.73 in1006.8 mb - 0.42 in10.7 mm 0.44 in11.2 mm
01:20 PM 68.5°F20.3°C 66.7°F19.3°C 94% 3.5 mph NW5.6 kmh NW 6.9 mph11.1 kmh 29.73 in1006.8 mb - 0.41 in10.4 mm 0.43 in10.9 mm
01:15 PM 68.5°F20.3°C 66.7°F19.3°C 94% 4.6 mph NW7.4 kmh NW 11.5 mph18.5 kmh 29.73 in1006.8 mb - 0.41 in10.4 mm 0.43 in10.9 mm
01:10 PM 68.6°F20.3°C 66.8°F19.3°C 94% 5.8 mph NNW9.3 kmh NNW 8.1 mph13.0 kmh 29.73 in1006.8 mb - 0.40 in10.2 mm 0.42 in10.7 mm
01:00 PM 68.7°F20.4°C 66.9°F19.4°C 94% 3.5 mph N5.6 kmh N 3.5 mph5.6 kmh 29.73 in1006.8 mb - 0.40 in10.2 mm 0.42 in10.7 mm
12:55 PM 68.8°F20.4°C 66.7°F19.3°C 93% 5.8 mph NW9.3 kmh NW 8.1 mph13.0 kmh 29.73 in1006.8 mb - 0.39 in9.9 mm 0.41 in10.4 mm
12:50 PM 68.9°F20.5°C 66.8°F19.3°C 93% 1.2 mph N1.9 kmh N 3.5 mph5.6 kmh 29.73 in1006.8 mb - 0.38 in9.7 mm 0.40 in10.2 mm
12:45 PM 69.2°F20.7°C 66.8°F19.3°C 92% 2.3 mph NW3.7 kmh NW 4.6 mph7.4 kmh 29.74 in1007.1 mb - 0.34 in8.6 mm 0.36 in9.1 mm
12:40 PM 70.0°F21.1°C 67.2°F19.6°C 91% 5.8 mph N9.3 kmh N 11.5 mph18.5 kmh 29.74 in1007.1 mb - 0.19 in4.8 mm 0.21 in5.3 mm
12:35 PM 70.3°F21.3°C 67.2°F19.6°C 90% 2.3 mph N3.7 kmh N 3.5 mph5.6 kmh 29.73 in1006.8 mb - 0.04 in1.0 mm 0.05 in1.3 mm
12:30 PM 70.5°F21.4°C 67.4°F19.7°C 90% 4.6 mph NW7.4 kmh NW 11.5 mph18.5 kmh 29.73 in1006.8 mb - 0.02 in0.5 mm 0.02 in0.5 mm
12:25 PM 70.6°F21.4°C 67.5°F19.7°C 90% 5.8 mph NNW9.3 kmh NNW 16.1 mph25.9 kmh 29.73 in1006.8 mb - 0.02 in0.5 mm 0.02 in0.5 mm
12:20 PM 70.6°F21.4°C 67.5°F19.7°C 90% 3.5 mph NW5.6 kmh NW 4.6 mph7.4 kmh 29.73 in1006.8 mb - 0.02 in0.5 mm 0.02 in0.5 mm
12:15 PM 70.6°F21.4°C 67.5°F19.7°C 90% 4.6 mph NNW7.4 kmh NNW 6.9 mph11.1 kmh 29.73 in1006.8 mb - 0.02 in0.5 mm 0.02 in0.5 mm
12:10 PM 70.8°F21.6°C 67.7°F19.8°C 90% 5.8 mph NNW9.3 kmh NNW 5.8 mph9.3 kmh 29.73 in1006.8 mb - 0.02 in0.5 mm 0.02 in0.5 mm
12:00 PM 70.4°F21.3°C 67.3°F19.6°C 90% 4.6 mph NNW7.4 kmh NNW 9.2 mph14.8 kmh 29.73 in1006.8 mb - 0.02 in0.5 mm 0.02 in0.5 mm
11:55 AM 70.3°F21.3°C 67.2°F19.6°C 90% 2.3 mph NW3.7 kmh NW 6.9 mph11.1 kmh 29.73 in1006.8 mb - 0.02 in0.5 mm 0.02 in0.5 mm
11:50 AM 70.2°F21.2°C 67.1°F19.5°C 90% 4.6 mph NE7.4 kmh NE 6.9 mph11.1 kmh 29.73 in1006.8 mb - 0.02 in0.5 mm 0.02 in0.5 mm
11:45 AM 70.3°F21.3°C 66.9°F19.4°C 89% 3.5 mph NNE5.6 kmh NNE 9.2 mph14.8 kmh 29.74 in1007.1 mb - 0.02 in0.5 mm 0.02 in0.5 mm
11:40 AM 70.6°F21.4°C 67.2°F19.6°C 89% 2.3 mph NW3.7 kmh NW 4.6 mph7.4 kmh 29.74 in1007.1 mb - 0.02 in0.5 mm 0.02 in0.5 mm
11:35 AM 71.0°F21.7°C 67.0°F19.4°C 87% 3.5 mph NW5.6 kmh NW 5.8 mph9.3 kmh 29.74 in1007.1 mb - 0.01 in0.3 mm 0.01 in0.3 mm
11:30 AM 71.5°F21.9°C 66.8°F19.3°C 85% 4.6 mph N7.4 kmh N 6.9 mph11.1 kmh 29.75 in1007.5 mb - 0.00 in0.0 mm 0.00 in0.0 mm
11:25 AM 71.4°F21.9°C 66.7°F19.3°C 85% 3.5 mph NW5.6 kmh NW 9.2 mph14.8 kmh 29.75 in1007.5 mb - 0.00 in0.0 mm 0.00 in0.0 mm
11:20 AM 71.4°F21.9°C 66.7°F19.3°C 85% 3.5 mph NNW5.6 kmh NNW 8.1 mph13.0 kmh 29.75 in1007.5 mb - 0.00 in0.0 mm 0.00 in0.0 mm
11:15 AM 71.6°F22.0°C 66.9°F19.4°C 85% 4.6 mph WNW7.4 kmh WNW 3.5 mph5.6 kmh 29.75 in1007.5 mb - 0.00 in0.0 mm 0.00 in0.0 mm
11:10 AM 71.8°F22.1°C 66.7°F19.3°C 84% 3.5 mph NW5.6 kmh NW 6.9 mph11.1 kmh 29.75 in1007.5 mb - 0.00 in0.0 mm 0.00 in0.0 mm
11:00 AM 71.7°F22.1°C 66.9°F19.4°C 85% 4.6 mph N7.4 kmh N 8.1 mph13.0 kmh 29.75 in1007.5 mb - 0.00 in0.0 mm 0.00 in0.0 mm
10:55 AM 71.7°F22.1°C 66.9°F19.4°C 85% 5.8 mph NNW9.3 kmh NNW 6.9 mph11.1 kmh 29.75 in1007.5 mb - 0.00 in0.0 mm 0.00 in0.0 mm
10:50 AM 71.9°F22.2°C 67.1°F19.5°C 85% 3.5 mph NE5.6 kmh NE 8.1 mph13.0 kmh 29.75 in1007.5 mb - 0.00 in0.0 mm 0.00 in0.0 mm
10:45 AM 72.2°F22.3°C 66.8°F19.3°C 83% 8.1 mph N13.0 kmh N 15.0 mph24.1 kmh 29.75 in1007.5 mb - 0.00 in0.0 mm 0.00 in0.0 mm
10:40 AM 72.5°F22.5°C 66.3°F19.1°C 81% 5.8 mph NW9.3 kmh NW 15.0 mph24.1 kmh 29.75 in1007.5 mb - 0.00 in0.0 mm 0.00 in0.0 mm
10:35 AM 72.5°F22.5°C 66.3°F19.1°C 81% 8.1 mph N13.0 kmh N 15.0 mph24.1 kmh 29.75 in1007.5 mb - 0.00 in0.0 mm 0.00 in0.0 mm
10:30 AM 72.4°F22.4°C 66.2°F19.0°C 81% 4.6 mph NW7.4 kmh NW 9.2 mph14.8 kmh 29.75 in1007.5 mb - 0.00 in0.0 mm 0.00 in0.0 mm
10:25 AM 72.4°F22.4°C 66.3°F19.1°C 81% 4.6 mph NW7.4 kmh NW 23.0 mph37.0 kmh 29.75 in1007.5 mb - 0.00 in0.0 mm 0.00 in0.0 mm
10:20 AM 72.6°F22.6°C 66.4°F19.1°C 81% 8.1 mph N13.0 kmh N 19.6 mph31.5 kmh 29.75 in1007.5 mb - 0.00 in0.0 mm 0.00 in0.0 mm
10:15 AM 72.8°F22.7°C 66.3°F19.1°C 80% 3.5 mph NW5.6 kmh NW 6.9 mph11.1 kmh 29.75 in1007.5 mb - 0.00 in0.0 mm 0.00 in0.0 mm
10:10 AM 72.9°F22.7°C 66.4°F19.1°C 80% 6.9 mph N11.1 kmh N 19.6 mph31.5 kmh 29.75 in1007.5 mb - 0.00 in0.0 mm 0.00 in0.0 mm
10:00 AM 73.0°F22.8°C 66.1°F18.9°C 79% 3.5 mph NW5.6 kmh NW 6.9 mph11.1 kmh 29.75 in1007.5 mb - 0.00 in0.0 mm 0.00 in0.0 mm
09:55 AM 73.0°F22.8°C 66.1°F18.9°C 79% 8.1 mph N13.0 kmh N 15.0 mph24.1 kmh 29.75 in1007.5 mb - 0.00 in0.0 mm 0.00 in0.0 mm
09:50 AM 73.0°F22.8°C 65.7°F18.7°C 78% 5.8 mph NNW9.3 kmh NNW 12.7 mph20.4 kmh 29.75 in1007.5 mb - 0.00 in0.0 mm 0.00 in0.0 mm
09:45 AM 73.1°F22.8°C 65.5°F18.6°C 77% 3.5 mph NNW5.6 kmh NNW 8.1 mph13.0 kmh 29.75 in1007.5 mb - 0.00 in0.0 mm 0.00 in0.0 mm
09:40 AM 73.3°F22.9°C 65.7°F18.7°C 77% 5.8 mph NNW9.3 kmh NNW 11.5 mph18.5 kmh 29.75 in1007.5 mb - 0.00 in0.0 mm 0.00 in0.0 mm
09:35 AM 73.5°F23.1°C 65.5°F18.6°C 76% 8.1 mph NW13.0 kmh NW 16.1 mph25.9 kmh 29.75 in1007.5 mb - 0.00 in0.0 mm 0.00 in0.0 mm
09:30 AM 73.6°F23.1°C 65.2°F18.4°C 75% 8.1 mph N13.0 kmh N 24.2 mph38.9 kmh 29.75 in1007.5 mb - 0.00 in0.0 mm 0.00 in0.0 mm
09:25 AM 73.7°F23.2°C 65.3°F18.5°C 75% 9.2 mph N14.8 kmh N 11.5 mph18.5 kmh 29.75 in1007.5 mb - 0.00 in0.0 mm 0.00 in0.0 mm
09:20 AM 73.7°F23.2°C 65.3°F18.5°C 75% 6.9 mph N11.1 kmh N 10.4 mph16.7 kmh 29.75 in1007.5 mb - 0.00 in0.0 mm 0.00 in0.0 mm
09:15 AM 73.5°F23.1°C 65.1°F18.4°C 75% 6.9 mph NW11.1 kmh NW 12.7 mph20.4 kmh 29.74 in1007.1 mb - 0.00 in0.0 mm 0.00 in0.0 mm
09:10 AM 73.4°F23.0°C 65.0°F18.3°C 75% 4.6 mph NNW7.4 kmh NNW 11.5 mph18.5 kmh 29.74 in1007.1 mb - 0.00 in0.0 mm 0.00 in0.0 mm
09:00 AM 73.2°F22.9°C 64.8°F18.2°C 75% 5.8 mph NW9.3 kmh NW 5.8 mph9.3 kmh 29.74 in1007.1 mb - 0.00 in0.0 mm 0.00 in0.0 mm
08:55 AM 73.1°F22.8°C 64.7°F18.2°C 75% 4.6 mph N7.4 kmh N 10.4 mph16.7 kmh 29.74 in1007.1 mb - 0.00 in0.0 mm 0.00 in0.0 mm
08:50 AM 73.0°F22.8°C 64.6°F18.1°C 75% 5.8 mph NNW9.3 kmh NNW 11.5 mph18.5 kmh 29.74 in1007.1 mb - 0.00 in0.0 mm 0.00 in0.0 mm
08:45 AM 73.0°F22.8°C 64.6°F18.1°C 75% 5.8 mph NNW9.3 kmh NNW 11.5 mph18.5 kmh 29.74 in1007.1 mb - 0.00 in0.0 mm 0.00 in0.0 mm
08:40 AM 73.0°F22.8°C 64.6°F18.1°C 75% 5.8 mph NW9.3 kmh NW 8.1 mph13.0 kmh 29.74 in1007.1 mb - 0.00 in0.0 mm 0.00 in0.0 mm
08:35 AM 73.0°F22.8°C 64.6°F18.1°C 75% 6.9 mph NNW11.1 kmh NNW 13.8 mph22.2 kmh 29.74 in1007.1 mb - 0.00 in0.0 mm 0.00 in0.0 mm
08:30 AM 73.2°F22.9°C 64.4°F18.0°C 74% 6.9 mph N11.1 kmh N 13.8 mph22.2 kmh 29.74 in1007.1 mb - 0.00 in0.0 mm 0.00 in0.0 mm
08:25 AM 73.3°F22.9°C 64.1°F17.8°C 73% 5.8 mph NE9.3 kmh NE 10.4 mph16.7 kmh 29.74 in1007.1 mb - 0.00 in0.0 mm 0.00 in0.0 mm
08:20 AM 73.4°F23.0°C 64.2°F17.9°C 73% 4.6 mph NNW7.4 kmh NNW 15.0 mph24.1 kmh 29.74 in1007.1 mb - 0.00 in0.0 mm 0.00 in0.0 mm
08:15 AM 73.4°F23.0°C 64.2°F17.9°C 73% 4.6 mph NE7.4 kmh NE 8.1 mph13.0 kmh 29.74 in1007.1 mb - 0.00 in0.0 mm 0.00 in0.0 mm
08:10 AM 73.4°F23.0°C 64.2°F17.9°C 73% 6.9 mph NNW11.1 kmh NNW 11.5 mph18.5 kmh 29.74 in1007.1 mb - 0.00 in0.0 mm 0.00 in0.0 mm
08:00 AM 73.4°F23.0°C 64.3°F17.9°C 73% 6.9 mph NNW11.1 kmh NNW 11.5 mph18.5 kmh 29.74 in1007.1 mb - 0.00 in0.0 mm 0.00 in0.0 mm
07:55 AM 73.5°F23.1°C 64.3°F17.9°C 73% 5.8 mph NW9.3 kmh NW 10.4 mph16.7 kmh 29.74 in1007.1 mb - 0.00 in0.0 mm 0.00 in0.0 mm
07:50 AM 73.4°F23.0°C 64.3°F17.9°C 73% 8.1 mph N13.0 kmh N 12.7 mph20.4 kmh 29.74 in1007.1 mb - 0.00 in0.0 mm 0.00 in0.0 mm
07:45 AM 73.3°F22.9°C 64.5°F18.1°C 74% 4.6 mph N7.4 kmh N 15.0 mph24.1 kmh 29.74 in1007.1 mb - 0.00 in0.0 mm 0.00 in0.0 mm
07:40 AM 73.3°F22.9°C 64.5°F18.1°C 74% 3.5 mph NW5.6 kmh NW 9.2 mph14.8 kmh 29.74 in1007.1 mb - 0.00 in0.0 mm 0.00 in0.0 mm
07:35 AM 73.3°F22.9°C 64.5°F18.1°C 74% 5.8 mph NW9.3 kmh NW 11.5 mph18.5 kmh 29.75 in1007.5 mb - 0.00 in0.0 mm 0.00 in0.0 mm
07:30 AM 73.4°F23.0°C 64.6°F18.1°C 74% 5.8 mph NW9.3 kmh NW 9.2 mph14.8 kmh 29.75 in1007.5 mb - 0.00 in0.0 mm 0.00 in0.0 mm
07:25 AM 73.5°F23.1°C 64.3°F17.9°C 73% 6.9 mph N11.1 kmh N 16.1 mph25.9 kmh 29.75 in1007.5 mb - 0.00 in0.0 mm 0.00 in0.0 mm
07:20 AM 73.6°F23.1°C 64.4°F18.0°C 73% 6.9 mph NE11.1 kmh NE 15.0 mph24.1 kmh 29.74 in1007.1 mb - 0.00 in0.0 mm 0.00 in0.0 mm
07:15 AM 73.7°F23.2°C 64.5°F18.1°C 73% 5.8 mph NNE9.3 kmh NNE 11.5 mph18.5 kmh 29.74 in1007.1 mb - 0.00 in0.0 mm 0.00 in0.0 mm
07:10 AM 73.7°F23.2°C 64.5°F18.1°C 73% 4.6 mph N7.4 kmh N 8.1 mph13.0 kmh 29.75 in1007.5 mb - 0.00 in0.0 mm 0.00 in0.0 mm
07:00 AM 73.7°F23.2°C 64.5°F18.1°C 73% 3.5 mph N5.6 kmh N 13.8 mph22.2 kmh 29.75 in1007.5 mb - 0.00 in0.0 mm 0.00 in0.0 mm
06:55 AM 73.7°F23.2°C 64.5°F18.1°C 73% 8.1 mph NNW13.0 kmh NNW 13.8 mph22.2 kmh 29.75 in1007.5 mb - 0.00 in0.0 mm 0.00 in0.0 mm
06:50 AM 73.7°F23.2°C 64.1°F17.8°C 72% 3.5 mph NNE5.6 kmh NNE 4.6 mph7.4 kmh 29.75 in1007.5 mb - 0.00 in0.0 mm 0.00 in0.0 mm
06:45 AM 73.8°F23.2°C 64.2°F17.9°C 72% 4.6 mph NNW7.4 kmh NNW 10.4 mph16.7 kmh 29.75 in1007.5 mb - 0.00 in0.0 mm 0.00 in0.0 mm
06:40 AM 73.9°F23.3°C 63.9°F17.7°C 71% 4.6 mph N7.4 kmh N 15.0 mph24.1 kmh 29.75 in1007.5 mb - 0.00 in0.0 mm 0.00 in0.0 mm
06:35 AM 73.9°F23.3°C 63.9°F17.7°C 71% 4.6 mph NNW7.4 kmh NNW 11.5 mph18.5 kmh 29.75 in1007.5 mb - 0.00 in0.0 mm 0.00 in0.0 mm
06:30 AM 74.0°F23.3°C 64.4°F18.0°C 72% 5.8 mph NE9.3 kmh NE 15.0 mph24.1 kmh 29.75 in1007.5 mb - 0.00 in0.0 mm 0.00 in0.0 mm
06:25 AM 73.9°F23.3°C 64.3°F17.9°C 72% 3.5 mph NNE5.6 kmh NNE 12.7 mph20.4 kmh 29.75 in1007.5 mb - 0.00 in0.0 mm 0.00 in0.0 mm
06:20 AM 74.0°F23.3°C 64.4°F18.0°C 72% 5.8 mph NNE9.3 kmh NNE 11.5 mph18.5 kmh 29.75 in1007.5 mb - 0.00 in0.0 mm 0.00 in0.0 mm
06:15 AM 74.2°F23.4°C 64.2°F17.9°C 71% 5.8 mph N9.3 kmh N 8.1 mph13.0 kmh 29.74 in1007.1 mb - 0.00 in0.0 mm 0.00 in0.0 mm
06:10 AM 74.7°F23.7°C 64.3°F17.9°C 70% 4.6 mph NE7.4 kmh NE 12.7 mph20.4 kmh 29.75 in1007.5 mb - 0.00 in0.0 mm 0.00 in0.0 mm
06:00 AM 75.4°F24.1°C 63.7°F17.6°C 67% 4.6 mph NE7.4 kmh NE 12.7 mph20.4 kmh 29.75 in1007.5 mb - 0.00 in0.0 mm 0.00 in0.0 mm
05:55 AM 75.6°F24.2°C 63.5°F17.5°C 66% 4.6 mph NNW7.4 kmh NNW 10.4 mph16.7 kmh 29.75 in1007.5 mb - 0.00 in0.0 mm 0.00 in0.0 mm
05:50 AM 76.1°F24.5°C 63.0°F17.2°C 64% 5.8 mph NNW9.3 kmh NNW 9.2 mph14.8 kmh 29.75 in1007.5 mb - 0.00 in0.0 mm 0.00 in0.0 mm
05:45 AM 76.9°F24.9°C 62.4°F16.9°C 61% 9.2 mph N14.8 kmh N 20.7 mph33.3 kmh 29.75 in1007.5 mb - 0.00 in0.0 mm 0.00 in0.0 mm
05:40 AM 77.4°F25.2°C 61.9°F16.6°C 59% 5.8 mph NE9.3 kmh NE 9.2 mph14.8 kmh 29.75 in1007.5 mb - 0.00 in0.0 mm 0.00 in0.0 mm
05:35 AM 77.3°F25.2°C 61.4°F16.3°C 58% 5.8 mph NNE9.3 kmh NNE 12.7 mph20.4 kmh 29.75 in1007.5 mb - 0.00 in0.0 mm 0.00 in0.0 mm
05:30 AM 77.1°F25.1°C 60.7°F15.9°C 57% 5.8 mph NNW9.3 kmh NNW 17.3 mph27.8 kmh 29.75 in1007.5 mb - 0.00 in0.0 mm 0.00 in0.0 mm
05:25 AM 77.0°F25.0°C 60.1°F15.6°C 56% 5.8 mph N9.3 kmh N 10.4 mph16.7 kmh 29.75 in1007.5 mb - 0.00 in0.0 mm 0.00 in0.0 mm
05:20 AM 76.9°F24.9°C 60.5°F15.8°C 57% 4.6 mph NW7.4 kmh NW 12.7 mph20.4 kmh 29.75 in1007.5 mb - 0.00 in0.0 mm 0.00 in0.0 mm
05:15 AM 76.8°F24.9°C 60.4°F15.8°C 57% 4.6 mph NNW7.4 kmh NNW 6.9 mph11.1 kmh 29.75 in1007.5 mb - 0.00 in0.0 mm 0.00 in0.0 mm
05:10 AM 76.7°F24.8°C 60.3°F15.7°C 57% 3.5 mph NW5.6 kmh NW 6.9 mph11.1 kmh 29.75 in1007.5 mb - 0.00 in0.0 mm 0.00 in0.0 mm
05:00 AM 76.7°F24.8°C 60.8°F16.0°C 58% 2.3 mph N3.7 kmh N 9.2 mph14.8 kmh 29.75 in1007.5 mb - 0.00 in0.0 mm 0.00 in0.0 mm
04:55 AM 76.7°F24.8°C 60.8°F16.0°C 58% 3.5 mph NW5.6 kmh NW 6.9 mph11.1 kmh 29.75 in1007.5 mb - 0.00 in0.0 mm 0.00 in0.0 mm
04:50 AM 76.7°F24.8°C 60.8°F16.0°C 58% 3.5 mph NW5.6 kmh NW 6.9 mph11.1 kmh 29.75 in1007.5 mb - 0.00 in0.0 mm 0.00 in0.0 mm
04:45 AM 76.7°F24.8°C 60.8°F16.0°C 58% 4.6 mph NNW7.4 kmh NNW 6.9 mph11.1 kmh 29.75 in1007.5 mb - 0.00 in0.0 mm 0.00 in0.0 mm
04:40 AM 76.6°F24.8°C 60.7°F15.9°C 58% 4.6 mph NW7.4 kmh NW 6.9 mph11.1 kmh 29.75 in1007.5 mb - 0.00 in0.0 mm 0.00 in0.0 mm
04:35 AM 76.6°F24.8°C 60.7°F15.9°C 58% 4.6 mph NNW7.4 kmh NNW 6.9 mph11.1 kmh 29.75 in1007.5 mb - 0.00 in0.0 mm 0.00 in0.0 mm
04:30 AM 76.5°F24.7°C 60.6°F15.9°C 58% 4.6 mph NW7.4 kmh NW 6.9 mph11.1 kmh 29.75 in1007.5 mb - 0.00 in0.0 mm 0.00 in0.0 mm
04:25 AM 76.6°F24.8°C 60.7°F15.9°C 58% 4.6 mph NW7.4 kmh NW 8.1 mph13.0 kmh 29.75 in1007.5 mb - 0.00 in0.0 mm 0.00 in0.0 mm
04:20 AM 76.6°F24.8°C 60.7°F15.9°C 58% 4.6 mph NW7.4 kmh NW 5.8 mph9.3 kmh 29.75 in1007.5 mb - 0.00 in0.0 mm 0.00 in0.0 mm
04:15 AM 76.7°F24.8°C 60.8°F16.0°C 58% 4.6 mph NW7.4 kmh NW 9.2 mph14.8 kmh 29.75 in1007.5 mb - 0.00 in0.0 mm 0.00 in0.0 mm
04:10 AM 76.6°F24.8°C 60.7°F15.9°C 58% 5.8 mph NW9.3 kmh NW 12.7 mph20.4 kmh 29.75 in1007.5 mb - 0.00 in0.0 mm 0.00 in0.0 mm
04:00 AM 76.8°F24.9°C 60.9°F16.1°C 58% 4.6 mph NNW7.4 kmh NNW 5.8 mph9.3 kmh 29.76 in1007.8 mb - 0.00 in0.0 mm 0.00 in0.0 mm
03:55 AM 76.7°F24.8°C 60.8°F16.0°C 58% 5.8 mph NNW9.3 kmh NNW 10.4 mph16.7 kmh 29.76 in1007.8 mb - 0.00 in0.0 mm 0.00 in0.0 mm
03:50 AM 76.6°F24.8°C 61.2°F16.2°C 59% 4.6 mph WNW7.4 kmh WNW 4.6 mph7.4 kmh 29.76 in1007.8 mb - 0.00 in0.0 mm 0.00 in0.0 mm
03:45 AM 76.4°F24.7°C 61.0°F16.1°C 59% 4.6 mph NW7.4 kmh NW 11.5 mph18.5 kmh 29.76 in1007.8 mb - 0.00 in0.0 mm 0.00 in0.0 mm
03:40 AM 76.3°F24.6°C 60.9°F16.1°C 59% 5.8 mph NW9.3 kmh NW 10.4 mph16.7 kmh 29.76 in1007.8 mb - 0.00 in0.0 mm 0.00 in0.0 mm
03:35 AM 76.3°F24.6°C 61.4°F16.3°C 60% 3.5 mph NW5.6 kmh NW 6.9 mph11.1 kmh 29.76 in1007.8 mb - 0.00 in0.0 mm 0.00 in0.0 mm
03:30 AM 76.3°F24.6°C 61.4°F16.3°C 60% 3.5 mph NW5.6 kmh NW 6.9 mph11.1 kmh 29.76 in1007.8 mb - 0.00 in0.0 mm 0.00 in0.0 mm
03:25 AM 76.3°F24.6°C 61.4°F16.3°C 60% 4.6 mph NW7.4 kmh NW 10.4 mph16.7 kmh 29.77 in1008.1 mb - 0.00 in0.0 mm 0.00 in0.0 mm
03:20 AM 76.3°F24.6°C 61.4°F16.3°C 60% 4.6 mph NW7.4 kmh NW 8.1 mph13.0 kmh 29.77 in1008.1 mb - 0.00 in0.0 mm 0.00 in0.0 mm
03:15 AM 76.3°F24.6°C 61.4°F16.3°C 60% 4.6 mph NW7.4 kmh NW 9.2 mph14.8 kmh 29.77 in1008.1 mb - 0.00 in0.0 mm 0.00 in0.0 mm
03:10 AM 76.4°F24.7°C 61.5°F16.4°C 60% 3.5 mph NNW5.6 kmh NNW 5.8 mph9.3 kmh 29.77 in1008.1 mb - 0.00 in0.0 mm 0.00 in0.0 mm
03:00 AM 76.5°F24.7°C 61.6°F16.4°C 60% 5.8 mph NW9.3 kmh NW 8.1 mph13.0 kmh 29.77 in1008.1 mb - 0.00 in0.0 mm 0.00 in0.0 mm
02:55 AM 76.5°F24.7°C 61.6°F16.4°C 60% 3.5 mph NW5.6 kmh NW 8.1 mph13.0 kmh 29.77 in1008.1 mb - 0.00 in0.0 mm 0.00 in0.0 mm
02:50 AM 76.4°F24.7°C 61.5°F16.4°C 60% 6.9 mph NW11.1 kmh NW 9.2 mph14.8 kmh 29.78 in1008.5 mb - 0.00 in0.0 mm 0.00 in0.0 mm
02:45 AM 76.3°F24.6°C 61.9°F16.6°C 61% 4.6 mph NW7.4 kmh NW 6.9 mph11.1 kmh 29.78 in1008.5 mb - 0.00 in0.0 mm 0.00 in0.0 mm
02:40 AM 76.2°F24.6°C 61.8°F16.6°C 61% 6.9 mph NW11.1 kmh NW 9.2 mph14.8 kmh 29.78 in1008.5 mb - 0.00 in0.0 mm 0.00 in0.0 mm
02:35 AM 76.1°F24.5°C 61.7°F16.5°C 61% 4.6 mph NW7.4 kmh NW 8.1 mph13.0 kmh 29.78 in1008.5 mb - 0.00 in0.0 mm 0.00 in0.0 mm
02:30 AM 76.0°F24.4°C 62.1°F16.7°C 62% 4.6 mph NW7.4 kmh NW 5.8 mph9.3 kmh 29.78 in1008.5 mb - 0.00 in0.0 mm 0.00 in0.0 mm
02:25 AM 76.0°F24.4°C 62.0°F16.7°C 62% 4.6 mph NW7.4 kmh NW 11.5 mph18.5 kmh 29.78 in1008.5 mb - 0.00 in0.0 mm 0.00 in0.0 mm
02:20 AM 75.9°F24.4°C 61.9°F16.6°C 62% 5.8 mph NW9.3 kmh NW 11.5 mph18.5 kmh 29.79 in1008.8 mb - 0.00 in0.0 mm 0.00 in0.0 mm
02:15 AM 75.9°F24.4°C 62.4°F16.9°C 63% 3.5 mph NW5.6 kmh NW 6.9 mph11.1 kmh 29.78 in1008.5 mb - 0.00 in0.0 mm 0.00 in0.0 mm
02:10 AM 75.8°F24.3°C 62.3°F16.8°C 63% 6.9 mph NW11.1 kmh NW 12.7 mph20.4 kmh 29.79 in1008.8 mb - 0.00 in0.0 mm 0.00 in0.0 mm
02:00 AM 75.8°F24.3°C 62.3°F16.8°C 63% 3.5 mph NW5.6 kmh NW 8.1 mph13.0 kmh 29.79 in1008.8 mb - 0.00 in0.0 mm 0.00 in0.0 mm
01:55 AM 75.9°F24.4°C 62.4°F16.9°C 63% 5.8 mph NNW9.3 kmh NNW 5.8 mph9.3 kmh 29.79 in1008.8 mb - 0.00 in0.0 mm 0.00 in0.0 mm
01:50 AM 75.9°F24.4°C 62.4°F16.9°C 63% 4.6 mph NNW7.4 kmh NNW 9.2 mph14.8 kmh 29.79 in1008.8 mb - 0.00 in0.0 mm 0.00 in0.0 mm
01:45 AM 75.9°F24.4°C 62.4°F16.9°C 63% 6.9 mph WNW11.1 kmh WNW 9.2 mph14.8 kmh 29.79 in1008.8 mb - 0.00 in0.0 mm 0.00 in0.0 mm
01:40 AM 76.0°F24.4°C 62.5°F16.9°C 63% 3.5 mph NW5.6 kmh NW 6.9 mph11.1 kmh 29.79 in1008.8 mb - 0.00 in0.0 mm 0.00 in0.0 mm
01:35 AM 76.0°F24.4°C 62.5°F16.9°C 63% 4.6 mph NNW7.4 kmh NNW 8.1 mph13.0 kmh 29.80 in1009.1 mb - 0.00 in0.0 mm 0.00 in0.0 mm
01:30 AM 76.0°F24.4°C 62.5°F16.9°C 63% 5.8 mph NW9.3 kmh NW 10.4 mph16.7 kmh 29.80 in1009.1 mb - 0.00 in0.0 mm 0.00 in0.0 mm
01:25 AM 76.1°F24.5°C 62.6°F17.0°C 63% 4.6 mph NNW7.4 kmh NNW 8.1 mph13.0 kmh 29.80 in1009.1 mb - 0.00 in0.0 mm 0.00 in0.0 mm
01:20 AM 76.3°F24.6°C 62.8°F17.1°C 63% 4.6 mph NW7.4 kmh NW 6.9 mph11.1 kmh 29.80 in1009.1 mb - 0.00 in0.0 mm 0.00 in0.0 mm
01:15 AM 76.4°F24.7°C 62.4°F16.9°C 62% 4.6 mph NW7.4 kmh NW 15.0 mph24.1 kmh 29.80 in1009.1 mb - 0.00 in0.0 mm 0.00 in0.0 mm
01:10 AM 76.4°F24.7°C 62.4°F16.9°C 62% 3.5 mph NW5.6 kmh NW 9.2 mph14.8 kmh 29.80 in1009.1 mb - 0.00 in0.0 mm 0.00 in0.0 mm
01:00 AM 76.7°F24.8°C 62.7°F17.1°C 62% 3.5 mph NNW5.6 kmh NNW 9.2 mph14.8 kmh 29.80 in1009.1 mb - 0.00 in0.0 mm 0.00 in0.0 mm
12:55 AM 76.8°F24.9°C 62.3°F16.8°C 61% 5.8 mph NW9.3 kmh NW 10.4 mph16.7 kmh 29.81 in1009.5 mb - 0.00 in0.0 mm 0.00 in0.0 mm
12:50 AM 76.8°F24.9°C 62.8°F17.1°C 62% 3.5 mph NNW5.6 kmh NNW 8.1 mph13.0 kmh 29.81 in1009.5 mb - 0.00 in0.0 mm 0.00 in0.0 mm
12:45 AM 76.6°F24.8°C 62.6°F17.0°C 62% 5.8 mph NW9.3 kmh NW 11.5 mph18.5 kmh 29.81 in1009.5 mb - 0.00 in0.0 mm 0.00 in0.0 mm
12:40 AM 76.3°F24.6°C 62.7°F17.1°C 63% 4.6 mph NNW7.4 kmh NNW 10.4 mph16.7 kmh 29.81 in1009.5 mb - 0.00 in0.0 mm 0.00 in0.0 mm
12:35 AM 75.9°F24.4°C 63.3°F17.4°C 65% 4.6 mph NW7.4 kmh NW 8.1 mph13.0 kmh 29.81 in1009.5 mb - 0.00 in0.0 mm 0.00 in0.0 mm
12:30 AM 75.5°F24.2°C 63.3°F17.4°C 66% 4.6 mph NNW7.4 kmh NNW 8.1 mph13.0 kmh 29.81 in1009.5 mb - 0.00 in0.0 mm 0.00 in0.0 mm
12:25 AM 75.0°F23.9°C 63.7°F17.6°C 68% 3.5 mph N5.6 kmh N 6.9 mph11.1 kmh 29.82 in1009.8 mb - 0.00 in0.0 mm 0.00 in0.0 mm
12:20 AM 74.3°F23.5°C 63.9°F17.7°C 70% 4.6 mph NW7.4 kmh NW 8.1 mph13.0 kmh 29.82 in1009.8 mb - 0.00 in0.0 mm 0.00 in0.0 mm
12:15 AM 73.7°F23.2°C 64.5°F18.1°C 73% 3.5 mph NNW5.6 kmh NNW 8.1 mph13.0 kmh 29.82 in1009.8 mb - 0.00 in0.0 mm 0.00 in0.0 mm
12:10 AM 73.3°F22.9°C 64.5°F18.1°C 74% 3.5 mph N5.6 kmh N 6.9 mph11.1 kmh 29.82 in1009.8 mb - 0.00 in0.0 mm 0.00 in0.0 mm
12:00 AM 72.5°F22.5°C 64.9°F18.3°C 77% 2.3 mph NW3.7 kmh NW 3.5 mph5.6 kmh 29.82 in1009.8 mb - 0.00 in0.0 mm 0.00 in0.0 mm